LIRFLICR

Guest
Details From LIRF - Roma Fiumicino Leonardo Da Vinci
To LICR - Reggio Calabria
Flight Number -
Tags Generated
Created
Modified
Stats Distance 273 nm / 506 km
Max Altitude 0 ft / 0 m
Waypoints 3
Social Downloads 3
Likes 0
Share VATSIM

Download

Looking for another format? Having issues loading an existing format? Contact us
Advertisement - Login to hide

Notes

Generated

Route

LIRF RCA01 LICR

ID Type Via Altitude Latitude Longitude Leg Dist Tot Dist Heading (true) Name
O LIRF APT - 0 ft / 0 m 41.79932˚ 12.23212˚ - 0 nm - -
RCA01 FIX - 0 ft / 0 m 38.09132˚ 15.63758˚ 272 nm 272 nm 144° / 146° -
O LICR APT - 0 ft / 0 m 38.07548˚ 15.63813˚ 0 nm 273 nm 178° / 178° -

Altitude Profile

Advertisement - Login to hide

Weather


0- 5 10 15 20 25 30 35+ Temperature / ° C

Clouds and Precipitation
Forecast for 2017-12-16 12:00 UTC. Updated a few seconds ago

Ground ~20,000 ft ~40,000 ft Winds

LIRF

Details ICAO LIRF (FCO)
Name Roma Fiumicino Leonardo Da Vinci
Region Italy
Timezone Europe/Rome (UTC+1.0)
Stats Elevation 15 ft / 5 m (AMSL)
Location 41.810809° 12.250897°
Runways 3
Magnetic Variation 2.995° E

METAR

LIRF 161050Z 25014KT 9999 FEW025 SCT035 13/06 Q1006 NOSIG

Decode

TAF

TAF LIRF 160500Z 1606/1712 VRB06KT 9999 SCT030 BECMG 1610/1612 26015KT TEMPO 1612/1621 RA BECMG 1618/1620 32010KT BECMG 1622/1624 01015G25KT

Decode

Departure Runways

ID Width Length Bearing (true) Bearing (mag) Surface Threshold Offset Overrun Length
07 148 ft / 45 m 10,835 ft / 3,302 m 69.67° 66.67° Asphalt 1,365 ft / 416 m 0 ft / 0 m
16L 197 ft / 60 m 12,832 ft / 3,911 m 162.67° 159.67° Asphalt 0 ft / 0 m 0 ft / 0 m
16R 197 ft / 60 m 12,822 ft / 3,908 m 162.66° 159.66° Asphalt 0 ft / 0 m 0 ft / 0 m
25 148 ft / 45 m 10,835 ft / 3,302 m 249.70° 246.70° Asphalt 0 ft / 0 m 0 ft / 0 m
34L 197 ft / 60 m 12,822 ft / 3,908 m 342.67° 339.67° Asphalt 1,053 ft / 321 m 0 ft / 0 m
34R 197 ft / 60 m 12,832 ft / 3,911 m 342.68° 339.68° Asphalt 0 ft / 0 m 0 ft / 0 m

LICR

Details ICAO LICR (REG)
Name Reggio Calabria
Region Italy
Timezone Europe/Rome (UTC+1.0)
Stats Elevation 96 ft / 29 m (AMSL)
Location 38.072573° 15.649317°
Runways 2
Magnetic Variation 3.345° E

METAR

LICR 161050Z 36009KT 9999 SCT040 17/11 Q1008

Decode

TAF

TAF LICR 160500Z 1606/1706 35015KT 9999 SCT025 TEMPO 1606/1610 4000 SHRA TEMPO 1617/1706 4000 SHRA

Decode

Destination Runways

ID Width Length Bearing (true) Bearing (mag) Surface Threshold Offset Overrun Length
11 148 ft / 45 m 6,123 ft / 1,866 m 111.76° 108.41° Asphalt 203 ft / 62 m 0 ft / 0 m
15 148 ft / 45 m 6,640 ft / 2,024 m 151.90° 148.55° Asphalt 784 ft / 239 m 0 ft / 0 m
29 148 ft / 45 m 6,123 ft / 1,866 m 291.77° 288.42° Asphalt 157 ft / 48 m 0 ft / 0 m
33 148 ft / 45 m 6,640 ft / 2,024 m 331.90° 328.55° Asphalt 659 ft / 201 m 0 ft / 0 m

Approach Navaids

Runway Type Ident Frequency Range Bearing (true) Bearing (mag) Slope Elevation
33 Localiser REG 109.30 MHz 18 nm / 33 km 19.16° 15.82° - 95 ft / 29 m (AMSL)

Popular Alternatives